sensor_id;sensor_type;location;lat;lon;timestamp;P1;durP1;ratioP1;P2;durP2;ratioP2
6735;SDS011;3405;50.576;12.364;2023-06-10T00:00:48;6.75;;;5.47;;
6735;SDS011;3405;50.576;12.364;2023-06-10T00:03:15;7.45;;;5.57;;
6735;SDS011;3405;50.576;12.364;2023-06-10T00:05:41;6.00;;;5.40;;
6735;SDS011;3405;50.576;12.364;2023-06-10T00:08:07;8.48;;;5.45;;
6735;SDS011;3405;50.576;12.364;2023-06-10T00:10:34;6.13;;;5.53;;
6735;SDS011;3405;50.576;12.364;2023-06-10T00:13:00;6.00;;;5.40;;
6735;SDS011;3405;50.576;12.364;2023-06-10T00:15:27;6.20;;;5.30;;
6735;SDS011;3405;50.576;12.364;2023-06-10T00:17:53;7.03;;;5.55;;
6735;SDS011;3405;50.576;12.364;2023-06-10T00:20:20;6.97;;;5.63;;
6735;SDS011;3405;50.576;12.364;2023-06-10T00:22:48;5.38;;;4.88;;
6735;SDS011;3405;50.576;12.364;2023-06-10T00:25:14;5.97;;;5.38;;
6735;SDS011;3405;50.576;12.364;2023-06-10T00:27:40;6.00;;;5.40;;
6735;SDS011;3405;50.576;12.364;2023-06-10T00:30:06;5.93;;;5.32;;
6735;SDS011;3405;50.576;12.364;2023-06-10T00:32:36;6.05;;;5.55;;
6735;SDS011;3405;50.576;12.364;2023-06-10T00:35:04;5.88;;;5.28;;
6735;SDS011;3405;50.576;12.364;2023-06-10T00:37:31;6.70;;;5.32;;
6735;SDS011;3405;50.576;12.364;2023-06-10T00:39:57;5.30;;;4.80;;
6735;SDS011;3405;50.576;12.364;2023-06-10T00:42:23;5.82;;;4.72;;
6735;SDS011;3405;50.576;12.364;2023-06-10T00:44:52;5.88;;;5.13;;
6735;SDS011;3405;50.576;12.364;2023-06-10T00:47:17;6.00;;;5.43;;
6735;SDS011;3405;50.576;12.364;2023-06-10T00:49:44;5.60;;;5.10;;
6735;SDS011;3405;50.576;12.364;2023-06-10T00:52:10;6.85;;;5.32;;
6735;SDS011;3405;50.576;12.364;2023-06-10T00:54:37;6.50;;;5.35;;
6735;SDS011;3405;50.576;12.364;2023-06-10T00:57:04;6.80;;;5.15;;
6735;SDS011;3405;50.576;12.364;2023-06-10T00:59:30;5.63;;;5.05;;
6735;SDS011;3405;50.576;12.364;2023-06-10T01:01:57;5.53;;;5.03;;
6735;SDS011;3405;50.576;12.364;2023-06-10T01:04:23;5.80;;;5.03;;
6735;SDS011;3405;50.576;12.364;2023-06-10T01:09:23;6.78;;;5.20;;
6735;SDS011;3405;50.576;12.364;2023-06-10T01:11:52;5.85;;;5.25;;
6735;SDS011;3405;50.576;12.364;2023-06-10T01:14:19;5.30;;;4.78;;
6735;SDS011;3405;50.576;12.364;2023-06-10T01:16:47;5.88;;;5.30;;
6735;SDS011;3405;50.576;12.364;2023-06-10T01:19:13;6.28;;;5.47;;
6735;SDS011;3405;50.576;12.364;2023-06-10T01:21:42;5.88;;;5.30;;
6735;SDS011;3405;50.576;12.364;2023-06-10T01:24:13;5.90;;;5.35;;
6735;SDS011;3405;50.576;12.364;2023-06-10T01:26:39;5.82;;;5.20;;
6735;SDS011;3405;50.576;12.364;2023-06-10T01:29:11;5.50;;;5.00;;
6735;SDS011;3405;50.576;12.364;2023-06-10T01:31:51;6.25;;;5.22;;
6735;SDS011;3405;50.576;12.364;2023-06-10T01:34:19;5.60;;;5.00;;
6735;SDS011;3405;50.576;12.364;2023-06-10T01:36:47;6.10;;;5.45;;
6735;SDS011;3405;50.576;12.364;2023-06-10T01:39:14;6.28;;;5.68;;
6735;SDS011;3405;50.576;12.364;2023-06-10T01:41:41;5.70;;;5.13;;
6735;SDS011;3405;50.576;12.364;2023-06-10T01:44:07;6.93;;;5.28;;
6735;SDS011;3405;50.576;12.364;2023-06-10T01:46:32;5.85;;;5.25;;
6735;SDS011;3405;50.576;12.364;2023-06-10T01:48:58;5.72;;;5.13;;
6735;SDS011;3405;50.576;12.364;2023-06-10T01:51:24;6.47;;;5.82;;
6735;SDS011;3405;50.576;12.364;2023-06-10T01:53:50;5.65;;;5.07;;
6735;SDS011;3405;50.576;12.364;2023-06-10T01:56:16;6.18;;;5.40;;
6735;SDS011;3405;50.576;12.364;2023-06-10T01:58:44;6.72;;;5.05;;
6735;SDS011;3405;50.576;12.364;2023-06-10T02:01:10;5.95;;;5.07;;
6735;SDS011;3405;50.576;12.364;2023-06-10T02:03:36;8.05;;;5.80;;
6735;SDS011;3405;50.576;12.364;2023-06-10T02:06:02;5.95;;;5.25;;
6735;SDS011;3405;50.576;12.364;2023-06-10T02:08:28;6.22;;;5.32;;
6735;SDS011;3405;50.576;12.364;2023-06-10T02:10:54;6.60;;;5.20;;
6735;SDS011;3405;50.576;12.364;2023-06-10T02:13:20;5.88;;;4.68;;
6735;SDS011;3405;50.576;12.364;2023-06-10T02:15:46;7.35;;;5.40;;
6735;SDS011;3405;50.576;12.364;2023-06-10T02:18:12;6.68;;;5.15;;
6735;SDS011;3405;50.576;12.364;2023-06-10T02:20:38;7.15;;;5.05;;
6735;SDS011;3405;50.576;12.364;2023-06-10T02:23:04;6.18;;;5.57;;
6735;SDS011;3405;50.576;12.364;2023-06-10T02:25:30;5.57;;;5.00;;
6735;SDS011;3405;50.576;12.364;2023-06-10T02:27:56;6.35;;;4.63;;
6735;SDS011;3405;50.576;12.364;2023-06-10T02:30:22;6.03;;;5.43;;
6735;SDS011;3405;50.576;12.364;2023-06-10T02:32:48;6.22;;;5.50;;
6735;SDS011;3405;50.576;12.364;2023-06-10T02:35:16;6.15;;;5.10;;
6735;SDS011;3405;50.576;12.364;2023-06-10T02:37:42;6.70;;;5.35;;
6735;SDS011;3405;50.576;12.364;2023-06-10T02:40:08;6.05;;;5.45;;
6735;SDS011;3405;50.576;12.364;2023-06-10T02:42:35;5.70;;;5.10;;
6735;SDS011;3405;50.576;12.364;2023-06-10T02:45:01;6.55;;;5.30;;
6735;SDS011;3405;50.576;12.364;2023-06-10T02:47:27;7.30;;;5.10;;
6735;SDS011;3405;50.576;12.364;2023-06-10T02:49:53;6.15;;;5.43;;
6735;SDS011;3405;50.576;12.364;2023-06-10T02:52:19;6.38;;;4.82;;
6735;SDS011;3405;50.576;12.364;2023-06-10T02:54:45;5.88;;;4.97;;
6735;SDS011;3405;50.576;12.364;2023-06-10T02:57:11;6.30;;;4.60;;
6735;SDS011;3405;50.576;12.364;2023-06-10T02:59:39;6.60;;;4.97;;
6735;SDS011;3405;50.576;12.364;2023-06-10T03:02:05;7.22;;;5.13;;
6735;SDS011;3405;50.576;12.364;2023-06-10T03:04:31;4.93;;;4.40;;
6735;SDS011;3405;50.576;12.364;2023-06-10T03:06:57;7.03;;;5.38;;
6735;SDS011;3405;50.576;12.364;2023-06-10T03:09:23;5.57;;;5.00;;
6735;SDS011;3405;50.576;12.364;2023-06-10T03:11:49;5.55;;;5.05;;
6735;SDS011;3405;50.576;12.364;2023-06-10T03:14:14;5.63;;;5.03;;
6735;SDS011;3405;50.576;12.364;2023-06-10T03:16:40;5.43;;;4.93;;
6735;SDS011;3405;50.576;12.364;2023-06-10T03:19:07;6.55;;;5.22;;
6735;SDS011;3405;50.576;12.364;2023-06-10T03:21:36;5.95;;;5.38;;
6735;SDS011;3405;50.576;12.364;2023-06-10T03:24:02;5.90;;;5.25;;
6735;SDS011;3405;50.576;12.364;2023-06-10T03:26:29;6.10;;;5.20;;
6735;SDS011;3405;50.576;12.364;2023-06-10T03:28:55;6.00;;;5.40;;
6735;SDS011;3405;50.576;12.364;2023-06-10T03:31:21;6.00;;;5.40;;
6735;SDS011;3405;50.576;12.364;2023-06-10T03:33:49;6.38;;;5.78;;
6735;SDS011;3405;50.576;12.364;2023-06-10T03:36:16;5.43;;;4.93;;
6735;SDS011;3405;50.576;12.364;2023-06-10T03:38:41;8.02;;;5.95;;
6735;SDS011;3405;50.576;12.364;2023-06-10T03:41:07;7.53;;;6.60;;
6735;SDS011;3405;50.576;12.364;2023-06-10T03:43:33;7.35;;;5.30;;
6735;SDS011;3405;50.576;12.364;2023-06-10T03:45:59;8.23;;;6.82;;
6735;SDS011;3405;50.576;12.364;2023-06-10T03:48:25;7.50;;;6.20;;
6735;SDS011;3405;50.576;12.364;2023-06-10T03:50:51;10.88;;;7.00;;
6735;SDS011;3405;50.576;12.364;2023-06-10T03:53:17;7.38;;;5.95;;
6735;SDS011;3405;50.576;12.364;2023-06-10T03:55:43;6.90;;;6.18;;
6735;SDS011;3405;50.576;12.364;2023-06-10T03:58:10;7.78;;;6.93;;
6735;SDS011;3405;50.576;12.364;2023-06-10T04:00:39;6.47;;;5.88;;
6735;SDS011;3405;50.576;12.364;2023-06-10T04:03:10;7.32;;;5.28;;
6735;SDS011;3405;50.576;12.364;2023-06-10T04:05:39;7.82;;;5.30;;
6735;SDS011;3405;50.576;12.364;2023-06-10T04:08:06;7.78;;;5.80;;
6735;SDS011;3405;50.576;12.364;2023-06-10T04:10:32;6.72;;;5.88;;
6735;SDS011;3405;50.576;12.364;2023-06-10T04:12:58;7.40;;;5.88;;
6735;SDS011;3405;50.576;12.364;2023-06-10T04:15:24;9.90;;;6.45;;
6735;SDS011;3405;50.576;12.364;2023-06-10T04:17:50;7.80;;;5.60;;
6735;SDS011;3405;50.576;12.364;2023-06-10T04:20:17;8.70;;;5.70;;
6735;SDS011;3405;50.576;12.364;2023-06-10T04:22:43;6.85;;;5.88;;
6735;SDS011;3405;50.576;12.364;2023-06-10T04:25:09;7.50;;;5.50;;
6735;SDS011;3405;50.576;12.364;2023-06-10T04:27:35;9.15;;;5.70;;
6735;SDS011;3405;50.576;12.364;2023-06-10T04:30:02;7.47;;;5.68;;
6735;SDS011;3405;50.576;12.364;2023-06-10T04:32:29;6.40;;;5.78;;
6735;SDS011;3405;50.576;12.364;2023-06-10T04:34:55;8.23;;;6.07;;
6735;SDS011;3405;50.576;12.364;2023-06-10T04:37:21;6.93;;;5.40;;
6735;SDS011;3405;50.576;12.364;2023-06-10T04:39:47;7.10;;;5.88;;
6735;SDS011;3405;50.576;12.364;2023-06-10T04:42:13;6.18;;;5.50;;
6735;SDS011;3405;50.576;12.364;2023-06-10T04:44:39;6.30;;;5.70;;
6735;SDS011;3405;50.576;12.364;2023-06-10T04:47:05;7.07;;;5.07;;
6735;SDS011;3405;50.576;12.364;2023-06-10T04:49:32;5.30;;;4.80;;
6735;SDS011;3405;50.576;12.364;2023-06-10T04:51:58;8.48;;;5.40;;
6735;SDS011;3405;50.576;12.364;2023-06-10T04:54:25;6.40;;;5.72;;
6735;SDS011;3405;50.576;12.364;2023-06-10T04:56:51;8.07;;;5.80;;
6735;SDS011;3405;50.576;12.364;2023-06-10T04:59:16;7.53;;;6.35;;
6735;SDS011;3405;50.576;12.364;2023-06-10T05:01:42;12.52;;;5.95;;
6735;SDS011;3405;50.576;12.364;2023-06-10T05:04:08;7.25;;;6.25;;
6735;SDS011;3405;50.576;12.364;2023-06-10T05:06:34;10.55;;;6.07;;
6735;SDS011;3405;50.576;12.364;2023-06-10T05:09:01;9.23;;;6.05;;
6735;SDS011;3405;50.576;12.364;2023-06-10T05:11:27;10.43;;;5.80;;
6735;SDS011;3405;50.576;12.364;2023-06-10T05:13:53;9.73;;;5.07;;
6735;SDS011;3405;50.576;12.364;2023-06-10T05:16:19;6.95;;;5.90;;
6735;SDS011;3405;50.576;12.364;2023-06-10T05:18:46;10.75;;;6.20;;
6735;SDS011;3405;50.576;12.364;2023-06-10T05:21:12;8.15;;;6.07;;
6735;SDS011;3405;50.576;12.364;2023-06-10T05:23:38;7.03;;;6.25;;
6735;SDS011;3405;50.576;12.364;2023-06-10T05:26:04;7.10;;;6.40;;
6735;SDS011;3405;50.576;12.364;2023-06-10T05:28:30;9.13;;;6.18;;
6735;SDS011;3405;50.576;12.364;2023-06-10T05:30:56;7.40;;;6.07;;
6735;SDS011;3405;50.576;12.364;2023-06-10T05:33:22;9.68;;;7.45;;
6735;SDS011;3405;50.576;12.364;2023-06-10T05:35:48;7.13;;;6.32;;
6735;SDS011;3405;50.576;12.364;2023-06-10T05:38:14;8.70;;;6.70;;
6735;SDS011;3405;50.576;12.364;2023-06-10T05:40:40;9.77;;;6.28;;
6735;SDS011;3405;50.576;12.364;2023-06-10T05:43:06;9.45;;;6.78;;
6735;SDS011;3405;50.576;12.364;2023-06-10T05:45:32;7.85;;;5.75;;
6735;SDS011;3405;50.576;12.364;2023-06-10T05:47:57;7.05;;;6.35;;
6735;SDS011;3405;50.576;12.364;2023-06-10T05:50:24;10.40;;;6.30;;
6735;SDS011;3405;50.576;12.364;2023-06-10T05:52:49;8.48;;;6.63;;
6735;SDS011;3405;50.576;12.364;2023-06-10T05:55:18;8.77;;;7.18;;
6735;SDS011;3405;50.576;12.364;2023-06-10T05:57:44;8.38;;;6.80;;
6735;SDS011;3405;50.576;12.364;2023-06-10T06:00:10;9.02;;;6.95;;
6735;SDS011;3405;50.576;12.364;2023-06-10T06:02:36;7.22;;;6.38;;
6735;SDS011;3405;50.576;12.364;2023-06-10T06:05:02;7.38;;;6.25;;
6735;SDS011;3405;50.576;12.364;2023-06-10T06:07:28;7.60;;;6.63;;
6735;SDS011;3405;50.576;12.364;2023-06-10T06:09:54;8.85;;;7.63;;
6735;SDS011;3405;50.576;12.364;2023-06-10T06:12:20;9.77;;;6.80;;
6735;SDS011;3405;50.576;12.364;2023-06-10T06:14:46;8.60;;;7.35;;
6735;SDS011;3405;50.576;12.364;2023-06-10T06:17:14;7.10;;;6.40;;
6735;SDS011;3405;50.576;12.364;2023-06-10T06:19:40;9.75;;;7.00;;
6735;SDS011;3405;50.576;12.364;2023-06-10T06:22:05;7.72;;;6.30;;
6735;SDS011;3405;50.576;12.364;2023-06-10T06:24:31;9.27;;;6.47;;
6735;SDS011;3405;50.576;12.364;2023-06-10T06:26:57;8.80;;;7.13;;
6735;SDS011;3405;50.576;12.364;2023-06-10T06:29:23;10.43;;;7.78;;
6735;SDS011;3405;50.576;12.364;2023-06-10T06:31:49;7.70;;;6.05;;
6735;SDS011;3405;50.576;12.364;2023-06-10T06:34:15;8.32;;;6.60;;
6735;SDS011;3405;50.576;12.364;2023-06-10T06:36:41;6.68;;;6.07;;
6735;SDS011;3405;50.576;12.364;2023-06-10T06:39:07;7.53;;;6.15;;
6735;SDS011;3405;50.576;12.364;2023-06-10T06:41:33;7.03;;;5.53;;
6735;SDS011;3405;50.576;12.364;2023-06-10T06:43:59;7.80;;;6.65;;
6735;SDS011;3405;50.576;12.364;2023-06-10T06:46:25;7.15;;;6.07;;
6735;SDS011;3405;50.576;12.364;2023-06-10T06:48:51;7.82;;;6.25;;
6735;SDS011;3405;50.576;12.364;2023-06-10T06:51:17;8.73;;;6.47;;
6735;SDS011;3405;50.576;12.364;2023-06-10T06:53:43;8.65;;;5.75;;
6735;SDS011;3405;50.576;12.364;2023-06-10T06:56:11;16.48;;;6.85;;
6735;SDS011;3405;50.576;12.364;2023-06-10T06:58:36;6.78;;;6.13;;
6735;SDS011;3405;50.576;12.364;2023-06-10T07:01:02;7.85;;;6.43;;
6735;SDS011;3405;50.576;12.364;2023-06-10T07:03:28;7.82;;;6.05;;
6735;SDS011;3405;50.576;12.364;2023-06-10T07:05:54;8.43;;;6.55;;
6735;SDS011;3405;50.576;12.364;2023-06-10T07:08:20;8.50;;;5.63;;
6735;SDS011;3405;50.576;12.364;2023-06-10T07:10:46;7.63;;;5.88;;
6735;SDS011;3405;50.576;12.364;2023-06-10T07:13:14;6.88;;;6.18;;
6735;SDS011;3405;50.576;12.364;2023-06-10T07:15:39;7.07;;;6.30;;
6735;SDS011;3405;50.576;12.364;2023-06-10T07:18:05;7.50;;;6.32;;
6735;SDS011;3405;50.576;12.364;2023-06-10T07:20:31;8.13;;;5.82;;
6735;SDS011;3405;50.576;12.364;2023-06-10T07:22:57;10.60;;;5.53;;
6735;SDS011;3405;50.576;12.364;2023-06-10T07:25:23;9.23;;;6.00;;
6735;SDS011;3405;50.576;12.364;2023-06-10T07:27:49;9.90;;;6.22;;
6735;SDS011;3405;50.576;12.364;2023-06-10T07:30:15;8.30;;;6.00;;
6735;SDS011;3405;50.576;12.364;2023-06-10T07:32:41;6.78;;;5.57;;
6735;SDS011;3405;50.576;12.364;2023-06-10T07:35:08;9.38;;;5.95;;
6735;SDS011;3405;50.576;12.364;2023-06-10T07:37:35;6.72;;;5.90;;
6735;SDS011;3405;50.576;12.364;2023-06-10T07:40:02;8.00;;;5.97;;
6735;SDS011;3405;50.576;12.364;2023-06-10T07:42:28;8.55;;;5.95;;
6735;SDS011;3405;50.576;12.364;2023-06-10T07:44:54;7.90;;;5.88;;
6735;SDS011;3405;50.576;12.364;2023-06-10T07:47:19;6.50;;;5.72;;
6735;SDS011;3405;50.576;12.364;2023-06-10T07:49:45;8.27;;;5.40;;
6735;SDS011;3405;50.576;12.364;2023-06-10T07:52:11;6.82;;;6.10;;
6735;SDS011;3405;50.576;12.364;2023-06-10T07:54:37;8.15;;;6.22;;
6735;SDS011;3405;50.576;12.364;2023-06-10T07:57:03;6.72;;;6.03;;
6735;SDS011;3405;50.576;12.364;2023-06-10T07:59:29;7.90;;;6.47;;
6735;SDS011;3405;50.576;12.364;2023-06-10T08:01:55;9.13;;;6.15;;
6735;SDS011;3405;50.576;12.364;2023-06-10T08:04:21;6.85;;;6.15;;
6735;SDS011;3405;50.576;12.364;2023-06-10T08:06:47;9.40;;;6.10;;
6735;SDS011;3405;50.576;12.364;2023-06-10T08:09:13;8.55;;;5.90;;
6735;SDS011;3405;50.576;12.364;2023-06-10T08:11:39;8.65;;;5.80;;
6735;SDS011;3405;50.576;12.364;2023-06-10T08:14:05;7.32;;;6.13;;
6735;SDS011;3405;50.576;12.364;2023-06-10T08:16:31;7.03;;;5.95;;
6735;SDS011;3405;50.576;12.364;2023-06-10T08:18:57;7.13;;;5.97;;
6735;SDS011;3405;50.576;12.364;2023-06-10T08:21:23;10.13;;;6.07;;
6735;SDS011;3405;50.576;12.364;2023-06-10T08:23:52;8.32;;;6.15;;
6735;SDS011;3405;50.576;12.364;2023-06-10T08:26:18;7.97;;;5.50;;
6735;SDS011;3405;50.576;12.364;2023-06-10T08:28:43;9.02;;;6.22;;
6735;SDS011;3405;50.576;12.364;2023-06-10T08:31:10;7.63;;;6.45;;
6735;SDS011;3405;50.576;12.364;2023-06-10T08:33:36;7.07;;;5.97;;
6735;SDS011;3405;50.576;12.364;2023-06-10T08:36:02;8.88;;;6.93;;
6735;SDS011;3405;50.576;12.364;2023-06-10T08:38:28;8.27;;;5.43;;
6735;SDS011;3405;50.576;12.364;2023-06-10T08:40:56;10.93;;;5.82;;
6735;SDS011;3405;50.576;12.364;2023-06-10T08:43:22;7.15;;;6.03;;
6735;SDS011;3405;50.576;12.364;2023-06-10T08:45:51;7.03;;;6.32;;
6735;SDS011;3405;50.576;12.364;2023-06-10T08:48:20;7.03;;;5.95;;
6735;SDS011;3405;50.576;12.364;2023-06-10T08:50:47;8.30;;;6.35;;
6735;SDS011;3405;50.576;12.364;2023-06-10T08:53:13;8.18;;;6.30;;
6735;SDS011;3405;50.576;12.364;2023-06-10T08:55:43;8.95;;;6.13;;
6735;SDS011;3405;50.576;12.364;2023-06-10T08:58:10;8.63;;;6.75;;
6735;SDS011;3405;50.576;12.364;2023-06-10T09:00:36;8.38;;;6.47;;
6735;SDS011;3405;50.576;12.364;2023-06-10T09:03:04;8.30;;;6.28;;
6735;SDS011;3405;50.576;12.364;2023-06-10T09:05:31;8.48;;;6.45;;
6735;SDS011;3405;50.576;12.364;2023-06-10T09:07:58;8.52;;;5.65;;
6735;SDS011;3405;50.576;12.364;2023-06-10T09:10:26;8.85;;;6.28;;
6735;SDS011;3405;50.576;12.364;2023-06-10T09:12:52;11.15;;;6.40;;
6735;SDS011;3405;50.576;12.364;2023-06-10T09:15:18;7.47;;;6.38;;
6735;SDS011;3405;50.576;12.364;2023-06-10T09:17:44;9.60;;;6.55;;
6735;SDS011;3405;50.576;12.364;2023-06-10T09:20:10;9.32;;;6.72;;
6735;SDS011;3405;50.576;12.364;2023-06-10T09:22:36;8.55;;;6.93;;
6735;SDS011;3405;50.576;12.364;2023-06-10T09:27:30;8.98;;;6.60;;
6735;SDS011;3405;50.576;12.364;2023-06-10T09:29:59;11.18;;;7.28;;
6735;SDS011;3405;50.576;12.364;2023-06-10T09:32:25;9.65;;;7.20;;
6735;SDS011;3405;50.576;12.364;2023-06-10T09:34:52;8.10;;;7.28;;
6735;SDS011;3405;50.576;12.364;2023-06-10T09:37:22;9.63;;;8.13;;
6735;SDS011;3405;50.576;12.364;2023-06-10T09:40:01;9.75;;;7.43;;
6735;SDS011;3405;50.576;12.364;2023-06-10T09:42:27;8.45;;;7.32;;
6735;SDS011;3405;50.576;12.364;2023-06-10T09:44:57;11.43;;;7.38;;
6735;SDS011;3405;50.576;12.364;2023-06-10T09:47:23;10.05;;;6.65;;
6735;SDS011;3405;50.576;12.364;2023-06-10T09:49:49;9.48;;;7.55;;
6735;SDS011;3405;50.576;12.364;2023-06-10T09:52:24;7.40;;;6.70;;
6735;SDS011;3405;50.576;12.364;2023-06-10T09:54:51;11.75;;;7.30;;
6735;SDS011;3405;50.576;12.364;2023-06-10T09:57:17;7.85;;;7.05;;
6735;SDS011;3405;50.576;12.364;2023-06-10T09:59:43;12.93;;;7.50;;
6735;SDS011;3405;50.576;12.364;2023-06-10T10:02:16;11.23;;;7.43;;
6735;SDS011;3405;50.576;12.364;2023-06-10T10:04:43;12.15;;;7.50;;
6735;SDS011;3405;50.576;12.364;2023-06-10T10:07:10;9.90;;;6.93;;
6735;SDS011;3405;50.576;12.364;2023-06-10T10:09:39;8.45;;;7.25;;
6735;SDS011;3405;50.576;12.364;2023-06-10T10:12:07;12.15;;;7.03;;
6735;SDS011;3405;50.576;12.364;2023-06-10T10:14:35;10.13;;;7.55;;
6735;SDS011;3405;50.576;12.364;2023-06-10T10:17:02;9.20;;;6.85;;
6735;SDS011;3405;50.576;12.364;2023-06-10T10:19:28;14.30;;;6.80;;
6735;SDS011;3405;50.576;12.364;2023-06-10T10:21:59;9.85;;;8.02;;
6735;SDS011;3405;50.576;12.364;2023-06-10T10:24:33;10.98;;;7.47;;
6735;SDS011;3405;50.576;12.364;2023-06-10T10:27:01;8.52;;;6.55;;
6735;SDS011;3405;50.576;12.364;2023-06-10T10:29:33;10.57;;;6.68;;
6735;SDS011;3405;50.576;12.364;2023-06-10T10:32:02;8.85;;;7.30;;
6735;SDS011;3405;50.576;12.364;2023-06-10T10:34:49;9.95;;;6.85;;
6735;SDS011;3405;50.576;12.364;2023-06-10T10:37:20;10.70;;;7.53;;
6735;SDS011;3405;50.576;12.364;2023-06-10T10:39:46;11.98;;;7.43;;
6735;SDS011;3405;50.576;12.364;2023-06-10T10:42:12;14.07;;;8.13;;
6735;SDS011;3405;50.576;12.364;2023-06-10T10:44:39;9.23;;;7.80;;
6735;SDS011;3405;50.576;12.364;2023-06-10T10:47:07;17.35;;;7.90;;
6735;SDS011;3405;50.576;12.364;2023-06-10T10:49:35;11.90;;;7.80;;
6735;SDS011;3405;50.576;12.364;2023-06-10T10:52:01;11.00;;;7.80;;
6735;SDS011;3405;50.576;12.364;2023-06-10T10:54:31;9.50;;;7.07;;
6735;SDS011;3405;50.576;12.364;2023-06-10T10:57:10;9.63;;;7.15;;
6735;SDS011;3405;50.576;12.364;2023-06-10T11:02:33;7.90;;;6.20;;
6735;SDS011;3405;50.576;12.364;2023-06-10T11:04:57;10.20;;;6.80;;
6735;SDS011;3405;50.576;12.364;2023-06-10T11:07:28;8.02;;;6.38;;
6735;SDS011;3405;50.576;12.364;2023-06-10T11:10:08;6.88;;;6.25;;
6735;SDS011;3405;50.576;12.364;2023-06-10T11:12:50;6.80;;;5.75;;
6735;SDS011;3405;50.576;12.364;2023-06-10T11:15:20;6.53;;;5.82;;
6735;SDS011;3405;50.576;12.364;2023-06-10T11:23:24;7.15;;;5.50;;
6735;SDS011;3405;50.576;12.364;2023-06-10T11:25:50;5.75;;;5.13;;
6735;SDS011;3405;50.576;12.364;2023-06-10T11:28:19;7.70;;;5.10;;
6735;SDS011;3405;50.576;12.364;2023-06-10T11:30:46;6.85;;;5.40;;
6735;SDS011;3405;50.576;12.364;2023-06-10T11:33:16;5.50;;;5.00;;
6735;SDS011;3405;50.576;12.364;2023-06-10T11:35:42;6.60;;;4.68;;
6735;SDS011;3405;50.576;12.364;2023-06-10T11:38:08;6.13;;;5.05;;
6735;SDS011;3405;50.576;12.364;2023-06-10T11:40:34;5.50;;;5.00;;
6735;SDS011;3405;50.576;12.364;2023-06-10T11:43:03;6.05;;;5.15;;
6735;SDS011;3405;50.576;12.364;2023-06-10T11:45:30;5.20;;;4.53;;
6735;SDS011;3405;50.576;12.364;2023-06-10T11:47:56;6.63;;;5.30;;
6735;SDS011;3405;50.576;12.364;2023-06-10T11:50:32;6.72;;;5.07;;
6735;SDS011;3405;50.576;12.364;2023-06-10T11:52:58;8.43;;;5.38;;
6735;SDS011;3405;50.576;12.364;2023-06-10T11:55:25;5.78;;;5.18;;
6735;SDS011;3405;50.576;12.364;2023-06-10T11:57:51;7.35;;;5.50;;
6735;SDS011;3405;50.576;12.364;2023-06-10T12:00:22;5.60;;;5.07;;
6735;SDS011;3405;50.576;12.364;2023-06-10T12:02:56;6.32;;;5.25;;
6735;SDS011;3405;50.576;12.364;2023-06-10T12:05:22;5.80;;;5.22;;
6735;SDS011;3405;50.576;12.364;2023-06-10T12:07:48;5.78;;;5.20;;
6735;SDS011;3405;50.576;12.364;2023-06-10T12:10:14;5.53;;;4.85;;
6735;SDS011;3405;50.576;12.364;2023-06-10T12:12:41;5.57;;;5.07;;
6735;SDS011;3405;50.576;12.364;2023-06-10T12:15:08;8.18;;;5.35;;
6735;SDS011;3405;50.576;12.364;2023-06-10T12:20:02;7.03;;;5.15;;
6735;SDS011;3405;50.576;12.364;2023-06-10T12:22:38;6.78;;;5.30;;
6735;SDS011;3405;50.576;12.364;2023-06-10T12:25:05;6.68;;;5.28;;
6735;SDS011;3405;50.576;12.364;2023-06-10T12:27:32;9.00;;;5.15;;
6735;SDS011;3405;50.576;12.364;2023-06-10T12:29:58;9.30;;;5.35;;
6735;SDS011;3405;50.576;12.364;2023-06-10T12:35:22;8.48;;;4.75;;
6735;SDS011;3405;50.576;12.364;2023-06-10T12:37:56;6.25;;;5.07;;
6735;SDS011;3405;50.576;12.364;2023-06-10T12:40:26;6.40;;;5.28;;
6735;SDS011;3405;50.576;12.364;2023-06-10T12:42:53;6.70;;;4.90;;
6735;SDS011;3405;50.576;12.364;2023-06-10T12:45:31;12.23;;;4.60;;
6735;SDS011;3405;50.576;12.364;2023-06-10T12:50:54;6.18;;;4.53;;
6735;SDS011;3405;50.576;12.364;2023-06-10T12:53:21;7.82;;;4.85;;
6735;SDS011;3405;50.576;12.364;2023-06-10T12:55:48;5.70;;;4.70;;
6735;SDS011;3405;50.576;12.364;2023-06-10T12:58:14;6.32;;;4.38;;
6735;SDS011;3405;50.576;12.364;2023-06-10T13:00:40;4.85;;;4.30;;
6735;SDS011;3405;50.576;12.364;2023-06-10T13:03:07;6.10;;;4.40;;
6735;SDS011;3405;50.576;12.364;2023-06-10T13:05:34;4.95;;;4.03;;
6735;SDS011;3405;50.576;12.364;2023-06-10T13:08:02;4.15;;;3.70;;
6735;SDS011;3405;50.576;12.364;2023-06-10T13:10:28;5.57;;;4.28;;
6735;SDS011;3405;50.576;12.364;2023-06-10T13:12:54;4.43;;;3.80;;
6735;SDS011;3405;50.576;12.364;2023-06-10T13:15:20;4.65;;;4.05;;
6735;SDS011;3405;50.576;12.364;2023-06-10T13:17:46;5.05;;;4.15;;
6735;SDS011;3405;50.576;12.364;2023-06-10T13:20:14;4.22;;;3.83;;
6735;SDS011;3405;50.576;12.364;2023-06-10T13:22:41;5.15;;;4.07;;
6735;SDS011;3405;50.576;12.364;2023-06-10T13:25:07;4.95;;;3.97;;
6735;SDS011;3405;50.576;12.364;2023-06-10T13:27:33;5.25;;;4.07;;
6735;SDS011;3405;50.576;12.364;2023-06-10T13:29:59;5.35;;;3.72;;
6735;SDS011;3405;50.576;12.364;2023-06-10T13:32:25;5.47;;;4.30;;
6735;SDS011;3405;50.576;12.364;2023-06-10T13:34:51;4.20;;;3.80;;
6735;SDS011;3405;50.576;12.364;2023-06-10T13:37:21;6.05;;;3.72;;
6735;SDS011;3405;50.576;12.364;2023-06-10T13:39:47;5.07;;;4.07;;
6735;SDS011;3405;50.576;12.364;2023-06-10T13:42:18;4.90;;;3.60;;
6735;SDS011;3405;50.576;12.364;2023-06-10T13:44:47;6.50;;;3.72;;
6735;SDS011;3405;50.576;12.364;2023-06-10T13:47:14;4.78;;;3.72;;
6735;SDS011;3405;50.576;12.364;2023-06-10T13:49:40;4.82;;;3.70;;
6735;SDS011;3405;50.576;12.364;2023-06-10T13:52:06;7.05;;;3.63;;
6735;SDS011;3405;50.576;12.364;2023-06-10T13:54:32;4.78;;;3.65;;
6735;SDS011;3405;50.576;12.364;2023-06-10T13:57:00;8.25;;;3.67;;
6735;SDS011;3405;50.576;12.364;2023-06-10T13:59:26;4.90;;;3.78;;
6735;SDS011;3405;50.576;12.364;2023-06-10T14:01:52;6.13;;;3.72;;
6735;SDS011;3405;50.576;12.364;2023-06-10T14:04:18;6.65;;;4.03;;
6735;SDS011;3405;50.576;12.364;2023-06-10T14:06:44;5.88;;;3.70;;
6735;SDS011;3405;50.576;12.364;2023-06-10T14:09:10;9.25;;;4.20;;
6735;SDS011;3405;50.576;12.364;2023-06-10T14:11:38;7.63;;;4.20;;
6735;SDS011;3405;50.576;12.364;2023-06-10T14:14:04;6.85;;;4.40;;
6735;SDS011;3405;50.576;12.364;2023-06-10T14:16:30;10.32;;;4.70;;
6735;SDS011;3405;50.576;12.364;2023-06-10T14:18:56;12.10;;;4.55;;
6735;SDS011;3405;50.576;12.364;2023-06-10T14:21:22;6.97;;;4.38;;
6735;SDS011;3405;50.576;12.364;2023-06-10T14:23:48;6.32;;;4.70;;
6735;SDS011;3405;50.576;12.364;2023-06-10T14:26:15;9.27;;;5.00;;
6735;SDS011;3405;50.576;12.364;2023-06-10T14:28:41;6.53;;;4.70;;
6735;SDS011;3405;50.576;12.364;2023-06-10T14:31:06;5.57;;;4.15;;
6735;SDS011;3405;50.576;12.364;2023-06-10T14:33:32;6.07;;;4.20;;
6735;SDS011;3405;50.576;12.364;2023-06-10T14:35:59;4.60;;;4.13;;
6735;SDS011;3405;50.576;12.364;2023-06-10T14:38:25;4.70;;;4.15;;
6735;SDS011;3405;50.576;12.364;2023-06-10T14:40:50;7.47;;;4.50;;
6735;SDS011;3405;50.576;12.364;2023-06-10T14:43:17;5.80;;;4.25;;
6735;SDS011;3405;50.576;12.364;2023-06-10T14:45:43;5.45;;;4.25;;
6735;SDS011;3405;50.576;12.364;2023-06-10T14:48:10;4.47;;;3.95;;
6735;SDS011;3405;50.576;12.364;2023-06-10T14:50:36;5.38;;;4.38;;
6735;SDS011;3405;50.576;12.364;2023-06-10T14:53:02;5.85;;;4.05;;
6735;SDS011;3405;50.576;12.364;2023-06-10T14:55:28;7.25;;;4.15;;
6735;SDS011;3405;50.576;12.364;2023-06-10T14:57:54;6.68;;;4.20;;
6735;SDS011;3405;50.576;12.364;2023-06-10T15:00:22;5.55;;;3.85;;
6735;SDS011;3405;50.576;12.364;2023-06-10T15:02:49;6.28;;;4.00;;
6735;SDS011;3405;50.576;12.364;2023-06-10T15:05:15;4.68;;;4.03;;
6735;SDS011;3405;50.576;12.364;2023-06-10T15:07:41;5.88;;;3.92;;
6735;SDS011;3405;50.576;12.364;2023-06-10T15:10:07;5.50;;;4.38;;
6735;SDS011;3405;50.576;12.364;2023-06-10T15:12:34;5.05;;;4.18;;
6735;SDS011;3405;50.576;12.364;2023-06-10T15:14:59;5.00;;;4.50;;
6735;SDS011;3405;50.576;12.364;2023-06-10T15:17:26;4.82;;;4.10;;
6735;SDS011;3405;50.576;12.364;2023-06-10T15:19:51;6.18;;;4.03;;